Terminal Aerodrome Forecast
Issued by NWS

Home | Current Version | Previous Version | Text Only | Print | Product List | Glossary On
Versions: 1 2 3 4 5 6 7 8 9 10 11 12 13 14 15 16
000
FTUS42 TJSJ 220500 RRA
TAFKPK
TAF
TKPK 220550Z 2206/2306 10015KT P6SM VCTS SCT020CB BKN040
      TEMPO 2206/2209 4SM TSRA BKN015CB
     FM221000 13015KT P6SM VCTS BKN020CB OVC050
      AMD NOT SKED TIL 221100=

USA.gov is the U.S. government's official web portal to all federal, state and local government web resources and services.